Boger City, North Carolina
Current Conditions -  °F | °C
As of 12:35 PM on Friday 19 Dec 2014 (Local Time) from KIPJ Reporting Station
Clear Clear  
Wind Chill: 53°   Ceiling: Unl
Heat Index: 53°   Visibility: 10mi
Dew Point: 26°   Wind: 0mph
Humidity: 34%   Direction: NA
Pressure: 30.12"   Gusts: NA
Location:  35.4951°N, 81.2237°W
Report Text: KIPJ 191735Z AUTO 00000KT 10SM CLR 12/M04 A3012 RMK AO2 T01171036
Loading
Personal Weather Stations






























Interactive Weather Map New forecast layout! Learn more

10-Day Weather Forecast

Advertisements
Track Severe Weather on mobile